Time;durP1;ratioP1;P1;durP2;ratioP2;P2;SDS_P1;SDS_P2;PMS_P1;PMS_P2;Temp;Humidity;BMP_temperature;BMP_pressure;BME280_temperature;BME280_humidity;BME280_pressure;Samples;Min_cycle;Max_cycle;Signal;HPM_P1;HPM_P2
2022/05/12 00:02:10;;;;;;;1.43;0.90;;;18.00;98.20;;;;;;5038912;28;20688;-80
2022/05/12 00:04:38;;;;;;;1.43;0.90;;;18.00;98.20;;;;;;5037104;28;20467;-80
2022/05/12 00:07:08;;;;;;;1.47;0.93;;;18.00;98.20;;;;;;5038699;28;20535;-81
2022/05/12 00:09:35;;;;;;;1.50;0.90;;;17.90;98.20;;;;;;5035585;28;20463;-80
2022/05/12 00:12:03;;;;;;;1.47;0.90;;;17.90;98.20;;;;;;5037736;28;20487;-82
2022/05/12 00:14:31;;;;;;;1.43;1.00;;;17.90;98.20;;;;;;5037415;28;20479;-79
2022/05/12 00:16:58;;;;;;;1.50;1.00;;;17.80;98.20;;;;;;5044179;28;20498;-83
2022/05/12 00:19:27;;;;;;;1.50;0.93;;;17.80;98.20;;;;;;5036281;28;20478;-85
2022/05/12 00:21:55;;;;;;;1.47;0.90;;;17.80;98.20;;;;;;5038161;28;20481;-82
2022/05/12 00:24:23;;;;;;;1.47;1.00;;;17.80;98.20;;;;;;5036967;28;20513;-84
2022/05/12 00:26:50;;;;;;;1.43;0.90;;;17.70;98.20;;;;;;5041879;28;20478;-81
2022/05/12 00:29:17;;;;;;;1.47;1.00;;;17.60;98.20;;;;;;5039339;28;20941;-82
2022/05/12 00:31:46;;;;;;;1.50;0.90;;;17.60;98.20;;;;;;5041482;28;20563;-80
2022/05/12 00:34:14;;;;;;;1.50;0.90;;;17.50;98.20;;;;;;5036928;28;20463;-80
2022/05/12 00:36:42;;;;;;;1.43;0.90;;;17.50;98.20;;;;;;5036771;28;20835;-83
2022/05/12 00:39:09;;;;;;;1.40;0.90;;;17.50;98.20;;;;;;5039032;28;20459;-85
2022/05/12 00:41:38;;;;;;;1.47;1.00;;;17.50;98.20;;;;;;5039942;28;20542;-79
2022/05/12 00:44:07;;;;;;;1.43;0.90;;;17.50;98.20;;;;;;5039037;28;20494;-83
2022/05/12 00:46:37;;;;;;;1.50;0.97;;;17.40;98.20;;;;;;5039550;28;20507;-79
2022/05/12 00:49:06;;;;;;;1.47;0.90;;;17.40;98.20;;;;;;5036228;28;20542;-82
2022/05/12 00:51:37;;;;;;;1.50;0.97;;;17.40;98.20;;;;;;5036448;28;20470;-81
2022/05/12 00:54:08;;;;;;;1.50;1.00;;;17.40;98.20;;;;;;5036853;28;20644;-83
2022/05/12 00:56:38;;;;;;;1.50;1.00;;;17.40;98.20;;;;;;5038523;28;20451;-80
2022/05/12 00:59:09;;;;;;;1.50;0.90;;;17.40;98.20;;;;;;5035975;28;20462;-80
2022/05/12 01:01:38;;;;;;;1.50;0.90;;;17.30;98.20;;;;;;5038851;28;20845;-81
2022/05/12 01:04:06;;;;;;;1.60;1.30;;;17.20;98.20;;;;;;5036558;28;20479;-82
2022/05/12 01:06:33;;;;;;;1.60;1.30;;;17.20;98.20;;;;;;5042615;28;20471;-84
2022/05/12 01:09:00;;;;;;;1.40;0.90;;;17.10;98.20;;;;;;5041636;28;20474;-81
2022/05/12 01:11:27;;;;;;;1.50;0.90;;;17.10;98.20;;;;;;5040369;28;20891;-80
2022/05/12 01:14:00;;;;;;;1.50;1.03;;;17.10;98.20;;;;;;5052369;28;20487;-81
2022/05/12 01:16:37;;;;;;;1.50;0.93;;;17.10;98.20;;;;;;5039701;28;20563;-81
2022/05/12 01:19:05;;;;;;;1.47;1.00;;;17.00;98.20;;;;;;5042282;28;20454;-82
2022/05/12 01:21:32;;;;;;;1.47;0.90;;;16.90;98.20;;;;;;5041094;28;20463;-81
2022/05/12 01:24:01;;;;;;;1.47;1.00;;;16.90;98.20;;;;;;5039592;28;20492;-80
2022/05/12 01:26:28;;;;;;;1.50;0.90;;;16.90;98.20;;;;;;5039493;28;20487;-83
2022/05/12 01:28:56;;;;;;;1.50;1.00;;;16.90;98.20;;;;;;5043022;28;20474;-81
2022/05/12 01:31:24;;;;;;;1.50;1.00;;;16.80;98.20;;;;;;5039293;28;20462;-79
2022/05/12 01:33:52;;;;;;;1.40;0.90;;;16.70;98.20;;;;;;5043624;28;21025;-82
2022/05/12 01:36:19;;;;;;;1.47;1.00;;;16.60;98.20;;;;;;5018766;28;20478;-79
2022/05/12 01:38:47;;;;;;;1.47;0.90;;;16.60;98.20;;;;;;5033329;28;20536;-80
2022/05/12 01:41:16;;;;;;;1.50;1.00;;;16.60;98.20;;;;;;5040722;28;20487;-78
2022/05/12 01:43:43;;;;;;;1.50;0.90;;;16.50;98.20;;;;;;5041947;28;20502;-82
2022/05/12 01:46:11;;;;;;;1.47;0.97;;;16.50;98.20;;;;;;5045035;28;20525;-80
2022/05/12 01:48:38;;;;;;;1.50;1.00;;;16.40;98.20;;;;;;5046126;28;20459;-80
2022/05/12 01:51:06;;;;;;;1.50;1.00;;;16.40;98.20;;;;;;5041302;28;20486;-82
2022/05/12 01:53:33;;;;;;;1.50;0.90;;;16.40;98.20;;;;;;5039047;28;20486;-81
2022/05/12 01:56:01;;;;;;;1.47;1.00;;;16.30;98.20;;;;;;5030221;28;20479;-81
2022/05/12 01:58:29;;;;;;;1.47;1.00;;;16.30;98.20;;;;;;5055617;28;20467;-82
2022/05/12 02:00:56;;;;;;;1.47;0.90;;;16.30;98.20;;;;;;5041008;28;20494;-80
2022/05/12 02:03:23;;;;;;;1.50;0.90;;;16.30;98.20;;;;;;5040710;28;20529;-80
2022/05/12 02:05:50;;;;;;;1.47;0.90;;;16.20;98.20;;;;;;5032984;28;20467;-79
2022/05/12 02:08:20;;;;;;;1.50;0.90;;;16.20;98.20;;;;;;5040171;28;20471;-80
2022/05/12 02:10:49;;;;;;;1.50;1.00;;;16.10;98.20;;;;;;5040513;28;20467;-80
2022/05/12 02:13:20;;;;;;;1.50;0.90;;;16.10;98.20;;;;;;5043922;28;20482;-80
2022/05/12 02:15:49;;;;;;;1.47;0.90;;;16.00;98.20;;;;;;5041606;28;20551;-81
2022/05/12 02:18:19;;;;;;;1.50;1.00;;;15.90;98.20;;;;;;5043542;28;20463;-79
2022/05/12 02:20:46;;;;;;;1.50;1.00;;;15.90;98.20;;;;;;5040920;28;20658;-80
2022/05/12 02:23:13;;;;;;;1.50;0.90;;;15.80;98.20;;;;;;5047176;28;21083;-81
2022/05/12 02:25:40;;;;;;;1.50;1.00;;;15.80;98.20;;;;;;5038288;28;20456;-81
2022/05/12 02:28:08;;;;;;;1.47;0.97;;;15.70;98.20;;;;;;5041035;28;20455;-80
2022/05/12 02:30:36;;;;;;;1.50;0.93;;;15.70;98.20;;;;;;5036319;28;20462;-82
2022/05/12 02:33:04;;;;;;;1.50;0.90;;;15.60;98.20;;;;;;5048411;28;20517;-81
2022/05/12 02:35:31;;;;;;;1.47;0.90;;;15.60;98.20;;;;;;5042286;28;20479;-79
2022/05/12 02:37:58;;;;;;;1.47;1.00;;;15.50;98.20;;;;;;5028023;28;20467;-79
2022/05/12 02:40:28;;;;;;;1.50;1.00;;;15.40;98.20;;;;;;5040027;28;20478;-77
2022/05/12 02:42:58;;;;;;;1.50;1.00;;;15.40;98.20;;;;;;5038707;28;20483;-80
2022/05/12 02:45:25;;;;;;;1.50;1.00;;;15.30;98.20;;;;;;5039872;28;20463;-80
2022/05/12 02:47:52;;;;;;;1.50;1.00;;;15.30;98.20;;;;;;5044078;28;20483;-80
2022/05/12 02:50:21;;;;;;;1.50;1.00;;;15.20;98.20;;;;;;5038890;28;20455;-80
2022/05/12 02:52:49;;;;;;;1.50;1.00;;;15.10;98.20;;;;;;5045229;28;20486;-83
2022/05/12 02:55:15;;;;;;;1.50;1.00;;;15.00;98.20;;;;;;5038777;28;20479;-80
2022/05/12 02:57:43;;;;;;;1.50;1.00;;;14.90;98.20;;;;;;5044007;28;20452;-78
2022/05/12 03:00:16;;;;;;;1.50;1.00;;;14.90;98.20;;;;;;5042277;28;20491;-80
2022/05/12 03:02:44;;;;;;;1.50;1.00;;;14.80;98.20;;;;;;5033201;28;20541;-82
2022/05/12 03:05:12;;;;;;;1.50;1.00;;;14.70;98.20;;;;;;5039021;28;20455;-81
2022/05/12 03:07:41;;;;;;;1.50;1.00;;;14.70;98.20;;;;;;5042898;28;20468;-80
2022/05/12 03:10:09;;;;;;;1.50;1.00;;;14.70;98.20;;;;;;5041748;28;20467;-79
2022/05/12 03:12:36;;;;;;;1.50;1.00;;;14.60;98.20;;;;;;5034346;28;20850;-80
2022/05/12 03:15:03;;;;;;;1.47;1.00;;;14.60;98.20;;;;;;5041191;28;20462;-82
2022/05/12 03:17:30;;;;;;;1.47;0.90;;;14.50;98.20;;;;;;5033978;28;20459;-82
2022/05/12 03:19:58;;;;;;;1.50;1.00;;;14.50;98.20;;;;;;5040323;28;20483;-79
2022/05/12 03:22:26;;;;;;;1.50;1.00;;;14.40;98.20;;;;;;5032363;28;20490;-79
2022/05/12 03:24:55;;;;;;;1.50;1.00;;;14.40;98.20;;;;;;5027278;28;20558;-80
2022/05/12 03:27:21;;;;;;;1.50;1.00;;;14.40;98.20;;;;;;5038872;28;20462;-79
2022/05/12 03:29:49;;;;;;;1.50;1.00;;;14.40;98.20;;;;;;5035022;28;20460;-80
2022/05/12 03:32:16;;;;;;;1.50;1.10;;;14.30;98.20;;;;;;5040471;28;20486;-79
2022/05/12 03:34:43;;;;;;;1.50;1.00;;;14.30;98.20;;;;;;5032088;28;20469;-82
2022/05/12 03:37:11;;;;;;;1.47;1.00;;;14.30;98.20;;;;;;5042521;28;20543;-82
2022/05/12 03:39:39;;;;;;;1.50;1.00;;;14.20;98.20;;;;;;5038718;28;20471;-79
2022/05/12 03:42:10;;;;;;;1.50;1.10;;;14.20;98.20;;;;;;5033774;28;20494;-80
2022/05/12 03:44:50;;;;;;;1.50;1.00;;;14.20;98.20;;;;;;5035698;28;20499;-84
2022/05/12 03:47:20;;;;;;;1.50;1.00;;;14.20;98.20;;;;;;5040784;28;20451;-80
2022/05/12 03:49:48;;;;;;;1.50;1.00;;;14.20;98.20;;;;;;5038923;28;20779;-78
2022/05/12 03:52:15;;;;;;;1.50;1.00;;;14.10;98.20;;;;;;5038311;28;20513;-79
2022/05/12 03:54:42;;;;;;;1.50;1.00;;;14.10;98.20;;;;;;5040254;28;20565;-78
2022/05/12 03:57:13;;;;;;;1.50;1.00;;;14.10;98.20;;;;;;5039700;28;20538;-81
2022/05/12 03:59:41;;;;;;;1.47;1.00;;;14.10;98.20;;;;;;5037556;28;20513;-82
2022/05/12 04:02:12;;;;;;;1.50;1.00;;;14.10;98.20;;;;;;5038576;28;20494;-78
2022/05/12 04:04:40;;;;;;;1.50;1.00;;;14.10;98.20;;;;;;5039560;28;20463;-81
2022/05/12 04:07:07;;;;;;;1.50;1.10;;;14.10;98.20;;;;;;5046185;28;20478;-79
2022/05/12 04:09:34;;;;;;;1.47;1.00;;;14.10;98.20;;;;;;5034139;28;20952;-81
2022/05/12 04:12:02;;;;;;;1.47;1.10;;;14.10;98.20;;;;;;5042263;28;20459;-79
2022/05/12 04:14:32;;;;;;;1.43;1.00;;;14.10;98.20;;;;;;5039300;28;20531;-80
2022/05/12 04:16:59;;;;;;;1.50;1.10;;;14.10;98.20;;;;;;5039179;28;20490;-78
2022/05/12 04:19:28;;;;;;;1.43;1.00;;;14.10;98.20;;;;;;5039964;28;20470;-78
2022/05/12 04:21:54;;;;;;;1.47;1.00;;;14.10;98.20;;;;;;5041566;28;20475;-80
2022/05/12 04:24:21;;;;;;;1.50;1.03;;;14.10;98.20;;;;;;5039445;28;20456;-80
2022/05/12 04:26:48;;;;;;;1.40;1.00;;;14.10;98.20;;;;;;5038971;28;20548;-79
2022/05/12 04:29:16;;;;;;;1.50;1.00;;;14.10;98.20;;;;;;5039308;28;20503;-79
2022/05/12 04:31:44;;;;;;;1.50;1.00;;;14.10;98.20;;;;;;5041585;28;20467;-80
2022/05/12 04:36:55;;;;;;;1.47;1.00;;;14.10;98.20;;;;;;5038223;28;20509;-79
2022/05/12 04:39:22;;;;;;;1.50;1.00;;;14.10;98.20;;;;;;5036704;28;20471;-79
2022/05/12 04:41:50;;;;;;;1.47;1.03;;;14.20;98.20;;;;;;5039843;28;21038;-82
2022/05/12 04:44:16;;;;;;;1.47;1.00;;;14.20;98.20;;;;;;5038528;28;20524;-80
2022/05/12 04:46:45;;;;;;;1.50;1.00;;;14.20;98.20;;;;;;5035571;28;20451;-80
2022/05/12 04:49:13;;;;;;;1.50;1.00;;;14.20;98.20;;;;;;5039088;28;20514;-78
2022/05/12 04:51:41;;;;;;;1.47;1.00;;;14.30;98.20;;;;;;5038907;28;20944;-82
2022/05/12 04:54:09;;;;;;;1.40;1.00;;;14.30;98.20;;;;;;5039211;28;20485;-81
2022/05/12 04:56:36;;;;;;;1.43;1.00;;;14.30;98.20;;;;;;5039890;28;20543;-78
2022/05/12 04:59:04;;;;;;;1.50;1.00;;;14.40;98.20;;;;;;5038339;28;20468;-79
2022/05/12 05:01:35;;;;;;;1.50;1.07;;;14.40;98.20;;;;;;5036790;28;20481;-80
2022/05/12 05:04:03;;;;;;;1.50;1.00;;;14.50;98.20;;;;;;5031783;28;20499;-80
2022/05/12 05:06:31;;;;;;;1.47;0.90;;;14.60;98.20;;;;;;5043661;28;20514;-80
2022/05/12 05:08:58;;;;;;;1.50;1.00;;;14.80;98.20;;;;;;5037811;28;20459;-81
2022/05/12 05:11:25;;;;;;;1.50;1.00;;;15.00;98.20;;;;;;5041518;28;20914;-82
2022/05/12 05:13:52;;;;;;;1.50;1.00;;;15.10;98.20;;;;;;5038285;28;20950;-78
2022/05/12 05:16:20;;;;;;;1.50;1.00;;;15.30;98.20;;;;;;5041816;28;20540;-82
2022/05/12 05:18:47;;;;;;;1.50;1.00;;;15.40;98.20;;;;;;5039604;28;20483;-81
2022/05/12 05:21:16;;;;;;;1.47;1.00;;;15.50;98.20;;;;;;5036958;28;20469;-81
2022/05/12 05:23:43;;;;;;;1.47;1.00;;;15.70;98.20;;;;;;5039868;28;20514;-79
2022/05/12 05:26:10;;;;;;;1.50;1.00;;;15.80;97.30;;;;;;5040344;28;20452;-82
2022/05/12 05:28:38;;;;;;;1.50;1.10;;;15.90;97.60;;;;;;5037182;28;20996;-81
2022/05/12 05:31:05;;;;;;;1.50;1.00;;;16.00;97.40;;;;;;5029788;28;21019;-80
2022/05/12 05:33:32;;;;;;;1.50;1.00;;;16.10;96.90;;;;;;5033368;28;20490;-81
2022/05/12 05:38:26;;;;;;;1.50;1.00;;;16.30;95.60;;;;;;5033282;22;20549;-78
2022/05/12 05:40:53;;;;;;;1.50;0.93;;;16.50;95.00;;;;;;5025172;28;20220;-78
2022/05/12 05:43:20;;;;;;;1.50;0.90;;;16.70;95.00;;;;;;5018920;28;20467;-78
2022/05/12 05:45:47;;;;;;;1.47;1.00;;;16.90;93.70;;;;;;5018490;28;20456;-78
2022/05/12 05:48:14;;;;;;;1.50;0.90;;;17.20;93.40;;;;;;5009967;28;20472;-78
2022/05/12 05:53:35;;;;;;;1.50;0.90;;;17.50;92.70;;;;;;5001170;28;20489;-79
2022/05/12 05:56:04;;;;;;;1.50;0.90;;;17.80;91.90;;;;;;5008688;28;20491;-78
2022/05/12 05:58:31;;;;;;;1.50;0.90;;;18.00;90.30;;;;;;5009213;28;20487;-78
2022/05/12 06:00:58;;;;;;;1.50;1.00;;;18.10;90.40;;;;;;5010745;28;20577;-76
2022/05/12 06:03:26;;;;;;;1.50;0.90;;;18.30;89.90;;;;;;5018800;28;20996;-80
2022/05/12 06:05:53;;;;;;;1.50;0.90;;;18.40;89.40;;;;;;5016078;28;20467;-78
2022/05/12 06:08:21;;;;;;;1.50;0.90;;;18.50;88.60;;;;;;5007826;28;20496;-78
2022/05/12 06:10:49;;;;;;;1.47;1.00;;;18.70;88.40;;;;;;5004673;28;20464;-78
2022/05/12 06:13:17;;;;;;;1.50;0.90;;;18.90;87.40;;;;;;5031108;28;20500;-78
2022/05/12 06:15:44;;;;;;;1.40;0.97;;;19.00;87.20;;;;;;5012013;28;20798;-78
2022/05/12 06:18:13;;;;;;;1.50;0.90;;;19.20;86.80;;;;;;5017334;28;20468;-78
2022/05/12 06:20:41;;;;;;;1.50;0.90;;;19.40;85.60;;;;;;5018527;28;20459;-78
2022/05/12 06:23:12;;;;;;;1.47;0.90;;;19.50;85.70;;;;;;5032083;28;20521;-77
2022/05/12 06:25:40;;;;;;;1.47;0.90;;;19.70;84.70;;;;;;5016966;28;20467;-78
2022/05/12 06:28:14;;;;;;;1.43;0.90;;;19.80;82.70;;;;;;5005471;28;20578;-78
2022/05/12 06:30:51;;;;;;;1.50;1.10;;;19.90;83.00;;;;;;5034207;28;20475;-77
2022/05/12 06:33:33;;;;;;;1.50;0.97;;;20.20;82.90;;;;;;5018772;28;21007;-76
2022/05/12 06:36:04;;;;;;;1.47;0.90;;;20.40;81.80;;;;;;4998467;28;20461;-78
2022/05/12 06:38:32;;;;;;;1.50;0.93;;;20.70;81.20;;;;;;5022194;28;20495;-78
2022/05/12 06:40:59;;;;;;;1.47;0.90;;;20.80;79.00;;;;;;5022739;28;20467;-79
2022/05/12 06:43:27;;;;;;;1.50;0.90;;;20.80;79.70;;;;;;5021234;28;20490;-78
2022/05/12 06:45:55;;;;;;;1.47;0.90;;;20.90;80.00;;;;;;5031347;28;20975;-78
2022/05/12 06:48:22;;;;;;;1.47;0.90;;;21.00;79.20;;;;;;5015029;28;20479;-78
2022/05/12 06:50:49;;;;;;;1.47;0.90;;;21.20;79.20;;;;;;4995350;28;20460;-78
2022/05/12 06:53:16;;;;;;;1.47;0.90;;;21.20;78.50;;;;;;5028491;28;20464;-78
2022/05/12 06:55:43;;;;;;;1.47;0.90;;;21.30;78.80;;;;;;5005186;28;20461;-78
2022/05/12 06:58:10;;;;;;;1.43;0.90;;;21.40;78.30;;;;;;5008088;28;20492;-75
2022/05/12 07:00:42;;;;;;;1.50;0.90;;;21.40;78.50;;;;;;5024143;28;20463;-77
2022/05/12 07:03:11;;;;;;;1.47;0.90;;;21.50;78.50;;;;;;5016199;28;20471;-77
2022/05/12 07:05:42;;;;;;;1.50;0.90;;;21.70;77.60;;;;;;5022421;28;20467;-77
2022/05/12 07:08:09;;;;;;;1.50;0.90;;;21.90;76.40;;;;;;5016334;28;20534;-78
2022/05/12 07:10:37;;;;;;;1.47;0.90;;;22.10;77.20;;;;;;5018891;28;20470;-76
2022/05/12 07:13:07;;;;;;;1.43;0.90;;;22.20;76.20;;;;;;5017354;28;20800;-77
2022/05/12 07:15:34;;;;;;;1.50;0.90;;;22.40;75.90;;;;;;5018067;28;20485;-77
2022/05/12 07:18:02;;;;;;;1.47;0.90;;;22.40;76.40;;;;;;5026937;28;20488;-77
2022/05/12 07:28:45;;;;;;;1.47;0.90;;;22.40;74.10;;;;;;5014571;28;20442;-77
2022/05/12 07:31:13;;;;;;;1.43;0.90;;;22.60;74.30;;;;;;5017121;28;20552;-77
2022/05/12 07:33:43;;;;;;;1.50;0.83;;;22.70;74.10;;;;;;5022707;28;20851;-77
2022/05/12 07:36:13;;;;;;;1.47;0.90;;;22.80;74.60;;;;;;5005860;28;20920;-77
2022/05/12 07:38:40;;;;;;;1.50;0.90;;;23.00;74.30;;;;;;5014377;28;20462;-77
2022/05/12 07:41:09;;;;;;;1.47;0.90;;;23.20;73.00;;;;;;5019031;28;20498;-78
2022/05/12 07:43:36;;;;;;;1.47;0.90;;;23.30;73.00;;;;;;5017899;28;20467;-78
2022/05/12 07:46:03;;;;;;;1.47;0.90;;;23.20;73.20;;;;;;5017875;28;20495;-78
2022/05/12 07:48:30;;;;;;;1.47;0.90;;;23.20;73.00;;;;;;5018193;28;20886;-77
2022/05/12 07:50:58;;;;;;;1.47;0.90;;;23.10;73.00;;;;;;5016314;28;20471;-78
2022/05/12 07:53:25;;;;;;;1.60;1.20;;;23.00;73.80;;;;;;5023444;28;20848;-77
2022/05/12 07:55:52;;;;;;;1.43;0.90;;;22.90;73.20;;;;;;5015514;28;20676;-78
2022/05/12 07:58:19;;;;;;;1.50;0.90;;;22.70;74.80;;;;;;5007138;28;20582;-78
2022/05/12 08:00:46;;;;;;;1.43;0.83;;;22.80;73.50;;;;;;5017559;28;20478;-78
2022/05/12 08:03:13;;;;;;;1.50;0.83;;;22.80;74.00;;;;;;5014682;28;20928;-79
2022/05/12 08:05:40;;;;;;;1.43;0.90;;;22.60;73.90;;;;;;5009167;28;20475;-78
2022/05/12 08:08:09;;;;;;;1.43;0.90;;;22.50;74.20;;;;;;5014460;28;20475;-78
2022/05/12 08:10:36;;;;;;;1.47;0.83;;;22.40;74.50;;;;;;5015405;28;20467;-78
2022/05/12 08:13:04;;;;;;;1.47;0.80;;;22.20;74.20;;;;;;5010136;28;20476;-78
2022/05/12 08:15:31;;;;;;;1.47;0.90;;;22.20;74.70;;;;;;5007987;28;20472;-78
2022/05/12 08:17:58;;;;;;;1.40;0.80;;;22.30;75.10;;;;;;5000838;28;20507;-76
2022/05/12 08:20:26;;;;;;;1.50;0.90;;;22.60;73.50;;;;;;5008528;28;20460;-76
2022/05/12 08:22:53;;;;;;;1.47;0.90;;;22.90;72.10;;;;;;5021108;28;20486;-76
2022/05/12 08:25:21;;;;;;;1.50;0.90;;;23.00;71.30;;;;;;5006465;28;20839;-76
2022/05/12 08:27:48;;;;;;;1.43;0.90;;;23.10;71.30;;;;;;5007077;28;20483;-77
2022/05/12 08:30:16;;;;;;;1.47;0.87;;;23.20;70.40;;;;;;5018306;28;20893;-78
2022/05/12 08:32:43;;;;;;;1.50;0.90;;;23.30;70.90;;;;;;5020161;28;20467;-77
2022/05/12 08:35:10;;;;;;;1.47;0.87;;;23.40;70.20;;;;;;5022936;28;20467;-77
2022/05/12 08:37:37;;;;;;;1.73;1.63;;;23.60;70.10;;;;;;5013711;28;20600;-77
2022/05/12 08:40:08;;;;;;;1.43;0.90;;;23.90;69.90;;;;;;5011594;28;20461;-77
2022/05/12 08:42:41;;;;;;;1.50;0.90;;;24.00;69.80;;;;;;4994540;28;20473;-77
2022/05/12 08:45:11;;;;;;;1.43;0.90;;;23.90;68.30;;;;;;5010354;28;20487;-78
2022/05/12 08:47:43;;;;;;;1.47;0.87;;;23.80;68.60;;;;;;5008626;28;20533;-77
2022/05/12 08:50:16;;;;;;;1.47;0.80;;;23.80;69.50;;;;;;5019681;28;20459;-78
2022/05/12 08:52:47;;;;;;;1.50;0.90;;;24.00;69.70;;;;;;5011056;28;20490;-78
2022/05/12 08:55:18;;;;;;;1.50;0.90;;;24.20;69.30;;;;;;5005314;28;20480;-79
2022/05/12 08:57:54;;;;;;;1.50;0.83;;;24.50;68.60;;;;;;5004362;28;20499;-78
2022/05/12 09:00:21;;;;;;;1.43;0.80;;;24.70;67.70;;;;;;5011129;28;20499;-77
2022/05/12 09:02:58;;;;;;;1.43;0.90;;;24.80;68.00;;;;;;5017757;28;20467;-78
2022/05/12 09:05:29;;;;;;;1.47;0.87;;;25.00;68.80;;;;;;5030452;28;20473;-78
2022/05/12 09:08:05;;;;;;;1.50;0.80;;;25.30;67.50;;;;;;5020860;28;20484;-78
2022/05/12 09:10:49;;;;;;;1.50;0.90;;;25.50;66.40;;;;;;4998344;28;20509;-77
2022/05/12 09:13:25;;;;;;;1.90;1.10;;;25.60;65.30;;;;;;5003023;28;20460;-78
2022/05/12 09:16:01;;;;;;;1.47;0.80;;;25.70;64.70;;;;;;5026355;28;21027;-73
2022/05/12 09:18:33;;;;;;;1.43;0.90;;;25.70;64.30;;;;;;5025507;28;20494;-78
2022/05/12 09:21:01;;;;;;;1.50;0.80;;;25.50;64.60;;;;;;5003217;28;20479;-78
2022/05/12 09:23:28;;;;;;;1.47;0.80;;;25.40;64.40;;;;;;5013648;28;20463;-78
2022/05/12 09:25:55;;;;;;;1.43;0.90;;;25.50;63.90;;;;;;5012654;28;20467;-78
2022/05/12 09:28:33;;;;;;;1.47;0.80;;;25.60;64.40;;;;;;5023188;28;21042;-78
2022/05/12 09:31:16;;;;;;;1.50;0.80;;;25.80;64.80;;;;;;5011904;28;20459;-78
2022/05/12 09:33:46;;;;;;;1.50;0.80;;;26.00;64.10;;;;;;5010208;28;20459;-77
2022/05/12 09:36:17;;;;;;;1.43;0.80;;;26.00;63.20;;;;;;5011721;28;20469;-77
2022/05/12 09:38:46;;;;;;;1.40;0.80;;;26.00;63.30;;;;;;5013397;28;20877;-78
2022/05/12 09:41:18;;;;;;;1.43;0.80;;;26.10;63.80;;;;;;5023328;28;20832;-77
2022/05/12 09:43:46;;;;;;;1.50;0.80;;;26.10;63.30;;;;;;5018087;28;20474;-77
2022/05/12 09:46:23;;;;;;;1.50;0.80;;;25.80;63.60;;;;;;5027591;28;20939;-78
2022/05/12 09:48:51;;;;;;;1.50;0.80;;;25.50;63.20;;;;;;5026582;28;20474;-76
2022/05/12 09:51:39;;;;;;;1.43;0.90;;;25.40;63.80;;;;;;5027967;28;20538;-75
2022/05/12 09:54:20;;;;;;;1.50;0.80;;;25.40;63.90;;;;;;5007929;28;20467;-77
2022/05/12 09:56:58;;;;;;;1.50;0.80;;;25.70;64.40;;;;;;5006810;28;20549;-78
2022/05/12 09:59:29;;;;;;;1.50;0.80;;;25.80;62.60;;;;;;5025383;28;20483;-78
2022/05/12 10:01:58;;;;;;;1.47;0.80;;;26.10;63.50;;;;;;5013040;28;20468;-79
2022/05/12 10:10:13;;;;;;;1.50;0.80;;;26.70;61.80;;;;;;5031375;28;20496;-76
2022/05/12 10:12:47;;;;;;;1.40;0.80;;;26.90;59.60;;;;;;5015533;28;20467;-77
2022/05/12 10:15:24;;;;;;;1.50;0.80;;;27.00;59.10;;;;;;5012768;28;20893;-77
2022/05/12 10:17:54;;;;;;;1.47;0.80;;;27.00;60.10;;;;;;5009754;28;20869;-77
2022/05/12 10:20:23;;;;;;;1.50;0.80;;;27.10;61.90;;;;;;5002437;28;20468;-78
2022/05/12 10:22:55;;;;;;;1.43;0.80;;;27.30;60.20;;;;;;5006483;28;20474;-79
2022/05/12 10:25:34;;;;;;;1.43;0.80;;;27.40;58.60;;;;;;5002519;28;20464;-78
2022/05/12 10:28:07;;;;;;;1.43;0.80;;;27.60;59.00;;;;;;5015787;28;20490;-77
2022/05/12 10:30:41;;;;;;;1.43;0.80;;;27.70;58.90;;;;;;5010145;28;20467;-77
2022/05/12 10:33:21;;;;;;;1.40;0.80;;;27.80;56.40;;;;;;5010322;28;20495;-76
2022/05/12 10:35:58;;;;;;;1.43;0.80;;;27.70;57.70;;;;;;5025179;28;21106;-77
2022/05/12 10:38:34;;;;;;;1.50;0.80;;;27.50;57.90;;;;;;5001603;28;20502;-76
2022/05/12 10:41:08;;;;;;;1.40;0.80;;;27.10;59.00;;;;;;5020907;28;20816;-76
2022/05/12 10:43:59;;;;;;;1.40;0.80;;;26.60;59.40;;;;;;5003387;28;20467;-75
2022/05/12 10:46:38;;;;;;;1.47;0.80;;;26.20;60.90;;;;;;5000380;28;20869;-76
2022/05/12 10:49:15;;;;;;;1.43;0.80;;;26.30;60.60;;;;;;5012349;28;20467;-76
2022/05/12 10:51:52;;;;;;;1.47;0.80;;;26.60;58.00;;;;;;5019559;28;21003;-77
2022/05/12 10:54:27;;;;;;;1.43;0.80;;;26.80;57.30;;;;;;5019657;28;20455;-76
2022/05/12 10:57:06;;;;;;;1.50;0.80;;;27.00;57.00;;;;;;5009378;28;20479;-78
2022/05/12 10:59:53;;;;;;;1.40;0.80;;;27.20;58.10;;;;;;4993957;28;20597;-80
2022/05/12 11:02:28;;;;;;;1.40;0.80;;;27.50;57.20;;;;;;5007882;28;20458;-78
2022/05/12 11:05:02;;;;;;;1.40;0.80;;;27.70;58.60;;;;;;5018200;28;20970;-78
2022/05/12 11:07:33;;;;;;;1.43;0.80;;;28.00;57.30;;;;;;5020343;28;20980;-78
2022/05/12 11:10:07;;;;;;;1.40;0.80;;;28.10;57.70;;;;;;5019441;28;20466;-78
2022/05/12 11:12:44;;;;;;;1.40;0.80;;;28.00;57.50;;;;;;5000575;28;20850;-79
2022/05/12 11:15:16;;;;;;;1.43;0.80;;;27.90;59.30;;;;;;4999796;28;20471;-78
2022/05/12 11:17:52;;;;;;;1.47;0.80;;;27.50;59.10;;;;;;5006712;28;20482;-78
2022/05/12 11:20:25;;;;;;;1.43;0.80;;;26.80;59.80;;;;;;5010744;28;20474;-79
2022/05/12 11:23:13;;;;;;;1.43;0.80;;;26.30;60.70;;;;;;5003540;28;20947;-78
2022/05/12 11:25:54;;;;;;;1.43;0.80;;;26.10;61.90;;;;;;5002746;28;20463;-78
2022/05/12 11:31:21;;;;;;;1.50;1.00;;;25.70;62.40;;;;;;4982455;28;20474;-78
2022/05/12 11:33:53;;;;;;;1.50;0.80;;;25.90;61.70;;;;;;5014724;28;20460;-79
2022/05/12 11:36:20;;;;;;;1.50;0.90;;;26.30;62.80;;;;;;4998446;28;20461;-78
2022/05/12 11:38:53;;;;;;;1.50;0.80;;;26.50;60.80;;;;;;5005154;28;20501;-76
2022/05/12 11:44:29;;;;;;;1.47;0.80;;;26.70;58.50;;;;;;5035759;28;20467;-81
2022/05/12 11:47:24;;;;;;;1.47;0.80;;;26.80;58.60;;;;;;5036003;28;20464;-81
2022/05/12 11:50:30;;;;;;;1.47;0.80;;;27.20;58.10;;;;;;5033145;28;20565;-82
2022/05/12 11:53:04;;;;;;;1.40;0.80;;;27.30;57.50;;;;;;5019756;28;20479;-84
2022/05/12 11:55:35;;;;;;;1.47;0.80;;;27.40;58.60;;;;;;5010583;28;20460;-80
2022/05/12 11:58:07;;;;;;;1.47;0.80;;;27.50;57.70;;;;;;5013944;28;21023;-80
2022/05/12 12:00:59;;;;;;;1.40;0.80;;;27.70;56.10;;;;;;5016321;28;20467;-81
2022/05/12 12:03:50;;;;;;;1.40;0.80;;;27.80;56.80;;;;;;5007171;28;20605;-80
2022/05/12 12:06:51;;;;;;;1.40;0.90;;;27.50;56.60;;;;;;5015467;28;21026;-80
2022/05/12 12:09:31;;;;;;;1.43;0.80;;;27.20;56.70;;;;;;5015065;28;20459;-81
2022/05/12 12:11:58;;;;;;;1.40;0.80;;;27.10;58.50;;;;;;5017431;28;20525;-82
2022/05/12 12:14:57;;;;;;;1.47;0.80;;;27.10;57.20;;;;;;5015713;28;20480;-81
2022/05/12 12:17:57;;;;;;;1.50;0.80;;;27.20;58.10;;;;;;5016871;28;20460;-81
2022/05/12 12:20:48;;;;;;;1.43;0.80;;;27.60;57.10;;;;;;5016352;28;20502;-82
2022/05/12 12:23:24;;;;;;;1.40;0.80;;;27.60;56.10;;;;;;5015506;28;20526;-80
2022/05/12 12:26:04;;;;;;;1.40;0.80;;;27.50;56.40;;;;;;5007056;28;20490;-79
2022/05/12 12:28:37;;;;;;;1.40;0.80;;;27.30;57.40;;;;;;5018501;28;20484;-81
2022/05/12 12:31:11;;;;;;;1.50;0.80;;;27.20;58.20;;;;;;5009115;28;20482;-84
2022/05/12 12:34:06;;;;;;;1.40;0.80;;;27.30;57.40;;;;;;5015275;28;20484;-82
2022/05/12 12:37:07;;;;;;;1.40;0.80;;;27.30;58.60;;;;;;5012677;28;20471;-82
2022/05/12 12:39:47;;;;;;;1.43;0.80;;;27.60;57.70;;;;;;5016014;28;20488;-83
2022/05/12 12:42:39;;;;;;;1.40;0.80;;;27.90;57.00;;;;;;5017802;28;21043;-85
2022/05/12 12:45:12;;;;;;;1.40;0.80;;;28.20;56.90;;;;;;5016463;28;20506;-80
2022/05/12 12:47:44;;;;;;;1.43;0.80;;;28.20;56.40;;;;;;5009386;28;20510;-80
2022/05/12 12:56:41;;;;;;;1.47;0.80;;;28.20;56.30;;;;;;5012110;28;20450;-78
2022/05/12 12:59:13;;;;;;;1.43;0.80;;;27.90;55.80;;;;;;5010912;28;20549;-79
2022/05/12 13:01:51;;;;;;;1.43;0.80;;;27.70;57.30;;;;;;5014917;28;20466;-82
2022/05/12 13:04:22;;;;;;;1.43;0.80;;;27.40;57.40;;;;;;5014628;28;20491;-78
2022/05/12 13:06:52;;;;;;;1.40;0.80;;;27.30;58.20;;;;;;5006099;28;20498;-80
2022/05/12 13:09:56;;;;;;;1.50;0.80;;;27.40;56.90;;;;;;5013505;28;20529;-84
2022/05/12 13:12:27;;;;;;;1.40;0.80;;;27.50;56.80;;;;;;5012190;28;20479;-82
2022/05/12 13:14:56;;;;;;;1.40;0.80;;;27.40;57.30;;;;;;5012929;28;20471;-80
2022/05/12 13:17:27;;;;;;;1.40;0.80;;;27.30;58.20;;;;;;5011411;28;20529;-78
2022/05/12 13:19:58;;;;;;;1.40;0.83;;;27.20;57.20;;;;;;5015241;28;20520;-84
2022/05/12 13:22:27;;;;;;;1.40;0.80;;;27.30;58.20;;;;;;5016912;28;20493;-80
2022/05/12 13:24:55;;;;;;;1.43;0.80;;;27.30;56.30;;;;;;5016220;28;20873;-80
2022/05/12 13:27:28;;;;;;;1.40;0.80;;;27.40;56.80;;;;;;5009870;28;20498;-78
2022/05/12 13:29:55;;;;;;;1.47;0.80;;;27.50;56.40;;;;;;5009535;28;20975;-79
2022/05/12 13:32:38;;;;;;;1.40;0.80;;;27.20;56.40;;;;;;5009382;28;20522;-79
2022/05/12 13:35:09;;;;;;;1.50;0.80;;;27.10;58.40;;;;;;5008414;28;20459;-79
2022/05/12 13:37:49;;;;;;;1.40;0.80;;;27.20;58.70;;;;;;5005354;28;20462;-79
2022/05/12 13:40:46;;;;;;;1.40;0.80;;;27.10;56.80;;;;;;5009465;28;20499;-79
2022/05/12 13:43:18;;;;;;;1.43;0.90;;;26.90;56.60;;;;;;5013779;28;20518;-79